首页
METAR-TAF:

METAR-TAF

机场 :

奥尔巴尼, 紐約州, 美国

纬度: 42-44-53N, 经度: 073-48-06W, 海拔: 87米

当前天气观测

该预报发布于1小时和9分钟前的00:51 UTC
风速10节,风向西转西北
温度 17°C
湿度 77%
气压 1013 hPa
能見度: 16.1公里
少量云层高于6500英尺
多云层高于8000英尺
多云层高于9000英尺

METAR: KALB 310051Z 29010KT 10SM FEW065 BKN080 BKN090 17/13 A2992 RMK AO2 RAE28 SLP130 P0000 T01670133

时间: 22:00 (02:00 UTC)

预报

该预报发布于2小时和33分钟前的23:27 UTC
预报有效从31日的 00点(UTC)到 31日的 24点(UTC)
风速10节,风向西
能見度: 10公里
多云层高于4500英尺
附近有阵雨
从 31日的 0500点(UTC)
风速12节,风向西北
能見度: 10公里
散云层高于4500英尺
从 31日的 1400点(UTC)
风速15节,风向西北,有时为23节阵风
能見度: 10公里
散云层高于5000英尺

TAF: KALB 302327Z 3100/3124 28010KT P6SM VCSH BKN045 FM310500 31012KT P6SM SCT045 FM311400 32015G23KT P6SM SCT050

超过4000个机场的气象观测和天气预报(METAR&TAF报告)。

可查询的气象台以黄色和红色小点在地图上表示。

将鼠标移到小点上方,可查看气象台名称。

然后点击查看天气观测和预报。

如需切换地图:点击带黑十字的绿色按钮放大地图;点击带横线的绿色按钮缩小地图;或者点击绿色箭头查看邻近地区的地图。


METAR-TAF: